Weather History for KONM - October, 2012

Change the Weather History Date:

Saturday, October 6, 2012

  Actual Average Record
Temperature  
Mean Temperature 67 °F -  
Max Temperature 80 °F 78 °F 82 °F (2010)
Min Temperature 54 °F 43 °F 39 °F (2013)
Cooling Degree Days 2    
Growing Degree Days 17 (Base 50)    
Moisture  
Dew Point 33 °F    
Average Humidity 33    
Maximum Humidity 55    
Minimum Humidity 15    
Precipitation  
Precipitation 0.00 in - - ()
Sea Level Pressure  
Sea Level Pressure 30.05 in    
Wind  
Wind Speed 5 mph (SSE)    
Max Wind Speed 13 mph    
Max Gust Speed -    
Visibility 10 miles    
Events      
Averages and records for this station are not official NWS values.
T = Trace of Precipitation, MM = Missing Value Source: NWS Daily Summary

Daily Weather History Graph

Daily Weather History Graph

Search for Another Location

Airport or City:

Trip Planner

Search our weather history database for the weather conditions in past years. The results will help you decide how hot, cold, wet, or windy it might be!

Date:

Astronomy

Oct. 06, 2012 Rise Set
Actual Time 7:06 AM MDT 6:44 PM MDT
Civil Twilight 6:41 AM MDT 7:09 PM MDT
Nautical Twilight 6:12 AM MDT 7:38 PM MDT
Astronomical Twilight 5:43 AM MDT 8:07 PM MDT
Moon 11:14 PM MDT (10/6) 12:50 PM MDT (10/6)
Length of Visible Light 12h 28m
Length of Day
11h 38m
Waning Gibbous, 65% of the Moon is Illuminated
Oct 6
Waning Gibbous
Oct 8
Last Quarter
Oct 15
New
Oct 21
First Quarter
Oct 29
Full

Hourly Weather History & Observations

Time (MDT) Temp. Dew Point Humidity Pressure Visibility Wind Dir Wind Speed Gust Speed Precip Events Conditions
12:15 AM 71.2 °F 23.0 °F 16% 30.06 in 10.0 mi Calm Calm - N/A   Clear
12:35 AM 63.7 °F 27.3 °F 25% 30.06 in 10.0 mi South 4.6 mph - N/A   Clear
1:35 AM 64.6 °F 23.5 °F 21% 30.06 in 10.0 mi South 5.8 mph - N/A   Clear
1:55 AM 65.1 °F 23.4 °F 20% 30.07 in 10.0 mi SW 5.8 mph - N/A   Clear
2:15 AM 64.4 °F 23.4 °F 21% 30.07 in 10.0 mi WSW 4.6 mph - N/A   Clear
2:35 AM 63.5 °F 23.9 °F 22% 30.07 in 10.0 mi SW 5.8 mph - N/A   Clear
2:55 AM 63.0 °F 24.8 °F 23% 30.07 in 10.0 mi SSW 4.6 mph - N/A   Clear
3:15 AM 62.4 °F 25.7 °F 25% 30.07 in 10.0 mi NNE 4.6 mph - N/A   Clear
3:35 AM 60.8 °F 26.2 °F 27% 30.07 in 10.0 mi WSW 4.6 mph - N/A   Clear
3:55 AM 60.3 °F 26.2 °F 27% 30.07 in 10.0 mi SSW 5.8 mph - N/A   Clear
4:55 AM 57.9 °F 35.2 °F 43% 30.08 in 10.0 mi SSW 5.8 mph - N/A   Clear
5:15 AM 57.2 °F 36.9 °F 47% 30.09 in 10.0 mi Calm Calm - N/A   Clear
5:35 AM 57.2 °F 36.5 °F 46% 30.09 in 10.0 mi Calm Calm - N/A   Clear
5:55 AM 55.9 °F 36.3 °F 48% 30.09 in 10.0 mi WSW 3.5 mph - N/A   Clear
6:15 AM 55.9 °F 36.1 °F 47% 30.09 in 10.0 mi Calm Calm - N/A   Clear
6:35 AM 56.8 °F 36.1 °F 46% 30.10 in 10.0 mi Calm Calm - N/A   Clear
6:55 AM 54.9 °F 36.5 °F 50% 30.10 in 10.0 mi Calm Calm - N/A   Clear
7:15 AM 54.7 °F 36.1 °F 50% 30.10 in 10.0 mi SW 4.6 mph - N/A   Clear
7:35 AM 56.5 °F 37.2 °F 49% 30.11 in 10.0 mi Calm Calm - N/A   Clear
7:55 AM 55.0 °F 37.8 °F 52% 30.11 in 10.0 mi Calm Calm - N/A   Clear
8:15 AM 58.5 °F 39.6 °F 49% 30.11 in 10.0 mi South 3.5 mph - N/A   Clear
8:35 AM 59.4 °F 40.1 °F 49% 30.10 in 10.0 mi SSE 5.8 mph - N/A   Clear
8:55 AM 59.9 °F 40.5 °F 49% 30.11 in 10.0 mi East 3.5 mph - N/A   Clear
9:15 AM 59.5 °F 42.1 °F 52% 30.11 in 10.0 mi South 4.6 mph - N/A   Clear
9:35 AM 61.5 °F 41.7 °F 48% 30.11 in 10.0 mi South 10.4 mph - N/A   Clear
9:55 AM 62.8 °F 41.5 °F 46% 30.12 in 10.0 mi South 5.8 mph - N/A   Clear
10:15 AM 63.7 °F 41.4 °F 44% 30.11 in 10.0 mi SSE 10.4 mph - N/A   Clear
10:35 AM 64.4 °F 41.7 °F 44% 30.11 in 10.0 mi South 6.9 mph - N/A   Clear
10:55 AM 65.5 °F 41.5 °F 42% 30.11 in 10.0 mi SSE 9.2 mph - N/A   Clear
11:15 AM 67.3 °F 39.9 °F 37% 30.10 in 10.0 mi South 8.1 mph - N/A   Clear
11:35 AM 67.1 °F 38.5 °F 35% 30.09 in 10.0 mi South 9.2 mph - N/A   Clear
11:55 AM 70.0 °F 38.5 °F 32% 30.09 in 10.0 mi SSE 10.4 mph - N/A   Clear
12:15 PM 71.1 °F 38.5 °F 31% 30.08 in 10.0 mi South 9.2 mph - N/A   Clear
12:35 PM 72.5 °F 38.3 °F 29% 30.06 in 10.0 mi SSE 10.4 mph - N/A   Clear
12:55 PM 73.8 °F 37.9 °F 27% 30.05 in 10.0 mi SSE 11.5 mph - N/A   Clear
1:15 PM 75.2 °F 38.7 °F 27% 30.04 in 10.0 mi SE 12.7 mph - N/A   Clear
1:35 PM 77.0 °F 37.8 °F 24% 30.02 in 10.0 mi SE 10.4 mph - N/A   Clear
2:15 PM 79.3 °F 30.4 °F 17% 30.00 in 10.0 mi SE 10.4 mph - N/A   Clear
2:35 PM 80.2 °F 32.4 °F 18% 29.99 in 10.0 mi SE 10.4 mph - N/A   Clear
2:55 PM 79.9 °F 31.8 °F 17% 29.98 in 10.0 mi SE 4.6 mph - N/A   Clear
3:15 PM 80.4 °F 31.3 °F 17% 29.98 in 10.0 mi SSE 8.1 mph - N/A   Clear
3:35 PM 79.9 °F 30.6 °F 17% 29.97 in 10.0 mi SE 6.9 mph - N/A   Clear
4:15 PM 79.0 °F 28.9 °F 16% 29.96 in 10.0 mi Calm Calm - N/A   Clear
4:35 PM 79.5 °F 29.1 °F 16% 29.95 in 10.0 mi SE 8.1 mph - N/A   Clear
5:15 PM 79.7 °F 28.8 °F 16% 29.94 in 10.0 mi SE 8.1 mph - N/A   Clear
5:35 PM 80.4 °F 28.2 °F 15% 29.94 in 10.0 mi SSW 5.8 mph - N/A   Clear
5:55 PM 79.9 °F 28.4 °F 15% 29.94 in 10.0 mi SSE 10.4 mph - N/A   Clear
6:15 PM 78.1 °F 27.9 °F 16% 29.94 in 10.0 mi South 10.4 mph - N/A   Clear
6:35 PM 75.9 °F 27.5 °F 17% 29.94 in 10.0 mi South 8.1 mph - N/A   Clear
6:55 PM 74.8 °F 26.4 °F 17% 29.95 in 10.0 mi South 6.9 mph - N/A   Clear
7:15 PM 68.9 °F 27.0 °F 21% 29.95 in 10.0 mi West 6.9 mph - N/A   Clear
7:35 PM 69.1 °F 27.9 °F 21% 29.96 in 10.0 mi Calm Calm - N/A   Clear
7:55 PM 69.3 °F 31.8 °F 25% 29.97 in 10.0 mi East 3.5 mph - N/A   Clear
8:15 PM 67.6 °F 30.0 °F 25% 29.98 in 10.0 mi SSE 4.6 mph - N/A   Clear
8:35 PM 67.3 °F 28.9 °F 24% 29.98 in 10.0 mi SE 4.6 mph - N/A   Clear
8:55 PM 67.8 °F 30.2 °F 25% 29.99 in 10.0 mi ESE 10.4 mph - N/A   Clear
9:15 PM 65.1 °F 33.1 °F 30% 30.01 in 10.0 mi ENE 3.5 mph - N/A   Clear
9:35 PM 63.5 °F 33.4 °F 33% 30.02 in 10.0 mi ENE 3.5 mph - N/A   Clear
9:55 PM 60.1 °F 34.7 °F 39% 30.03 in 10.0 mi NNW 5.8 mph - N/A   Clear
10:15 PM 58.1 °F 36.9 °F 45% 30.05 in 10.0 mi NNW 8.1 mph - N/A   Clear
10:35 PM 57.4 °F 37.2 °F 47% 30.07 in 10.0 mi ESE 4.6 mph - N/A   Clear
11:15 PM 55.4 °F 38.3 °F 53% 30.08 in 10.0 mi East 4.6 mph - N/A   Clear
11:35 PM 54.5 °F 38.3 °F 54% 30.09 in 10.0 mi East 4.6 mph - N/A   Clear
11:55 PM 54.7 °F 38.7 °F 55% 30.10 in 10.0 mi East 5.8 mph - N/A   Clear